Time;durP1;ratioP1;P1;durP2;ratioP2;P2;SDS_P1;SDS_P2;PMS_P1;PMS_P2;Temp;Humidity;BMP_temperature;BMP_pressure;BME280_temperature;BME280_humidity;BME280_pressure;Samples;Min_cycle;Max_cycle;Signal;HPM_P1;HPM_P2
2023/01/07 00:00:16;;;;;;;43.83;23.13;;;6.90;99.90;;;;;;4399253;28;657171;-74
2023/01/07 00:03:04;;;;;;;43.37;24.00;;;6.90;99.90;;;;;;4405358;28;657474;-74
2023/01/07 00:05:51;;;;;;;47.93;25.43;;;6.90;99.90;;;;;;4382445;28;657698;-75
2023/01/07 00:08:40;;;;;;;43.57;24.67;;;6.90;99.90;;;;;;4411186;28;657329;-75
2023/01/07 00:11:29;;;;;;;49.93;24.17;;;6.90;99.90;;;;;;4390552;28;658086;-74
2023/01/07 00:14:16;;;;;;;50.90;25.83;;;7.00;99.90;;;;;;4386623;28;657633;-74
2023/01/07 00:17:03;;;;;;;50.40;27.23;;;7.00;99.90;;;;;;4433860;28;658840;-75
2023/01/07 00:19:52;;;;;;;51.33;28.87;;;7.00;99.90;;;;;;4402503;28;657960;-75
2023/01/07 00:22:39;;;;;;;54.50;29.00;;;7.00;99.90;;;;;;4418338;28;658780;-74
2023/01/07 00:25:26;;;;;;;58.67;29.27;;;6.90;99.90;;;;;;4388687;28;658361;-75
2023/01/07 00:28:14;;;;;;;58.53;30.20;;;6.90;99.90;;;;;;4412645;28;657982;-74
2023/01/07 00:31:01;;;;;;;57.57;27.60;;;7.00;99.90;;;;;;4392017;28;657490;-75
2023/01/07 00:34:05;;;;;;;62.23;30.57;;;6.90;99.90;;;;;;4424403;28;658465;-75
2023/01/07 00:37:48;;;;;;;58.30;29.67;;;6.90;99.90;;;;;;4357215;28;657572;-75
2023/01/07 00:40:02;;;;;;;55.60;29.17;;;6.80;99.90;;;;;;4367703;28;657561;-75
2023/01/07 00:43:00;;;;;;;56.27;30.00;;;6.80;99.90;;;;;;4406200;28;657875;-75
2023/01/07 00:45:47;;;;;;;55.40;28.53;;;6.80;99.90;;;;;;4381134;28;658335;-75
2023/01/07 00:48:34;;;;;;;52.60;27.97;;;6.70;99.90;;;;;;4424050;28;657623;-75
2023/01/07 00:51:21;;;;;;;56.87;29.50;;;6.70;99.90;;;;;;4384830;28;658045;-75
2023/01/07 00:54:10;;;;;;;51.43;27.63;;;6.60;99.90;;;;;;4421234;28;657451;-74
2023/01/07 00:56:57;;;;;;;51.72;27.55;;;6.50;99.90;;;;;;4392685;28;658224;-75
2023/01/07 00:59:44;;;;;;;56.07;29.40;;;6.50;99.90;;;;;;4415699;28;657843;-75
2023/01/07 01:02:32;;;;;;;58.90;29.93;;;6.50;99.90;;;;;;4391710;28;659263;-75
2023/01/07 01:05:19;;;;;;;55.75;29.02;;;6.40;99.90;;;;;;4417489;28;657756;-75
2023/01/07 01:08:06;;;;;;;58.92;30.23;;;6.40;99.90;;;;;;4399396;28;657234;-75
2023/01/07 01:10:55;;;;;;;61.03;30.10;;;6.40;99.90;;;;;;4422290;28;658453;-75
2023/01/07 01:13:43;;;;;;;62.70;31.80;;;6.40;99.90;;;;;;4400651;28;658208;-75
2023/01/07 01:16:30;;;;;;;64.47;32.57;;;6.40;99.90;;;;;;4399977;28;657734;-74
2023/01/07 01:19:17;;;;;;;65.73;32.60;;;6.40;99.90;;;;;;4426877;28;658690;-74
2023/01/07 01:22:05;;;;;;;68.03;33.33;;;6.40;99.90;;;;;;4406916;28;658376;-74
2023/01/07 01:24:52;;;;;;;68.17;34.17;;;6.40;99.90;;;;;;4406350;28;657678;-75
2023/01/07 01:27:42;;;;;;;72.40;34.80;;;6.50;99.90;;;;;;4404932;28;657783;-75
2023/01/07 01:30:30;;;;;;;77.77;37.23;;;6.40;99.90;;;;;;4411961;28;658543;-74
2023/01/07 01:33:17;;;;;;;77.03;35.37;;;6.40;99.90;;;;;;4416100;28;657732;-74
2023/01/07 01:36:06;;;;;;;78.43;39.10;;;6.40;99.90;;;;;;4411735;28;657549;-74
2023/01/07 01:38:54;;;;;;;79.43;38.53;;;6.40;99.90;;;;;;4412517;28;657623;-74
2023/01/07 01:41:41;;;;;;;82.63;39.37;;;6.40;99.90;;;;;;4389953;28;657650;-74
2023/01/07 01:44:47;;;;;;;86.00;39.20;;;6.40;99.90;;;;;;4419094;28;657903;-75
2023/01/07 01:47:35;;;;;;;91.57;34.17;;;6.30;99.90;;;;;;4394765;28;657490;-74
2023/01/07 01:50:23;;;;;;;101.17;36.73;;;6.30;99.90;;;;;;4388320;28;658131;-75
2023/01/07 01:53:12;;;;;;;112.47;35.73;;;6.30;99.90;;;;;;4390046;28;659278;-74
2023/01/07 01:56:06;;;;;;;132.73;34.00;;;6.20;99.90;;;;;;4421923;28;659800;-75
2023/01/07 01:58:55;;;;;;;154.03;40.53;;;6.20;99.90;;;;;;4404277;28;658742;-75
2023/01/07 02:01:44;;;;;;;85.43;26.75;;;6.20;99.90;;;;;;4404628;28;659110;-74
2023/01/07 02:04:31;;;;;;;128.23;33.97;;;6.20;99.90;;;;;;4404073;28;658055;-74
2023/01/07 02:07:18;;;;;;;142.30;35.63;;;6.20;99.90;;;;;;4427451;28;659817;-74
2023/01/07 02:10:11;;;;;;;139.03;36.13;;;6.20;99.90;;;;;;4400508;28;658649;-75
2023/01/07 02:13:13;;;;;;;213.53;36.40;;;6.20;99.90;;;;;;4402977;28;658516;-74
2023/01/07 02:16:03;;;;;;;118.07;35.35;;;6.20;99.90;;;;;;4374843;28;659503;-74
2023/01/07 02:19:04;;;;;;;104.53;34.73;;;6.10;99.90;;;;;;4388665;28;659295;-74
2023/01/07 02:21:54;;;;;;;146.37;36.97;;;6.20;99.90;;;;;;4393757;28;659261;-74
2023/01/07 02:24:55;;;;;;;110.00;33.07;;;6.30;99.90;;;;;;4401543;28;659292;-75
2023/01/07 02:28:03;;;;;;;66.20;29.67;;;6.20;99.90;;;;;;4360551;28;658502;-74
2023/01/07 02:31:18;;;;;;;62.50;29.37;;;6.20;99.90;;;;;;4378950;28;657563;-74
2023/01/07 02:34:07;;;;;;;54.50;25.27;;;6.20;99.90;;;;;;4374125;28;657971;-75
2023/01/07 02:36:56;;;;;;;55.07;26.07;;;6.20;99.90;;;;;;4407423;28;657448;-74
2023/01/07 02:39:49;;;;;;;59.42;29.85;;;6.20;99.90;;;;;;4387648;28;657804;-74
2023/01/07 02:42:41;;;;;;;61.23;30.33;;;6.20;99.90;;;;;;4404026;28;657972;-74
2023/01/07 02:45:29;;;;;;;64.20;30.47;;;6.30;99.90;;;;;;4400657;28;658770;-74
2023/01/07 02:48:17;;;;;;;62.93;30.90;;;6.20;99.90;;;;;;4392330;28;658063;-74
2023/01/07 02:51:07;;;;;;;68.03;32.03;;;6.20;99.90;;;;;;4396811;28;658082;-74
2023/01/07 02:53:54;;;;;;;58.87;30.27;;;6.20;99.90;;;;;;4420237;28;657084;-74
2023/01/07 02:56:50;;;;;;;61.00;28.80;;;6.10;99.90;;;;;;4416960;28;658238;-75
2023/01/07 02:59:58;;;;;;;60.23;29.47;;;5.90;99.90;;;;;;4381560;28;658999;-74
2023/01/07 03:03:01;;;;;;;58.07;28.30;;;5.90;99.90;;;;;;4379115;28;657842;-74
2023/01/07 03:05:54;;;;;;;57.57;28.83;;;5.80;99.90;;;;;;4390538;28;657227;-74
2023/01/07 03:08:49;;;;;;;541.80;34.80;;;5.90;99.90;;;;;;4397181;28;657335;-74
2023/01/07 03:11:49;;;;;;;446.07;34.37;;;5.80;99.90;;;;;;4404954;28;658101;-74
2023/01/07 03:14:38;;;;;;;69.00;26.83;;;5.70;99.90;;;;;;4377499;28;658798;-74
2023/01/07 03:17:31;;;;;;;62.80;30.90;;;5.70;99.90;;;;;;4390072;28;657850;-74
2023/01/07 03:20:18;;;;;;;67.20;32.47;;;5.80;99.90;;;;;;4390020;28;657765;-74
2023/01/07 03:23:06;;;;;;;63.63;31.47;;;5.80;99.90;;;;;;4389315;28;657654;-74
2023/01/07 03:25:55;;;;;;;69.40;32.80;;;5.90;99.90;;;;;;4407850;28;658196;-74
2023/01/07 03:28:42;;;;;;;66.25;31.75;;;5.90;99.90;;;;;;4406115;28;658175;-74
2023/01/07 03:31:29;;;;;;;70.30;33.73;;;5.90;99.90;;;;;;4424001;28;657516;-74
2023/01/07 03:34:17;;;;;;;83.20;35.33;;;5.90;99.90;;;;;;4394542;28;659056;-74
2023/01/07 03:37:08;;;;;;;74.80;35.87;;;5.90;99.90;;;;;;4408302;28;657985;-74
2023/01/07 03:39:55;;;;;;;82.03;36.93;;;5.90;99.90;;;;;;4421952;28;658065;-74
2023/01/07 03:42:47;;;;;;;79.77;36.23;;;5.90;99.90;;;;;;4417702;28;657378;-74
2023/01/07 03:45:35;;;;;;;69.30;34.03;;;5.90;99.90;;;;;;4384575;28;657325;-74
2023/01/07 03:48:22;;;;;;;76.17;35.43;;;5.90;99.90;;;;;;4408910;28;658189;-74
2023/01/07 03:51:10;;;;;;;74.40;35.30;;;5.80;99.90;;;;;;4419043;28;657626;-74
2023/01/07 03:53:57;;;;;;;69.03;32.17;;;5.90;99.90;;;;;;4418476;28;658210;-74
2023/01/07 03:56:45;;;;;;;68.90;33.17;;;5.80;99.90;;;;;;4425439;28;658668;-74
2023/01/07 03:59:34;;;;;;;62.50;31.87;;;5.90;99.90;;;;;;4410636;28;658181;-74
2023/01/07 04:02:21;;;;;;;66.30;32.63;;;5.90;99.90;;;;;;4387290;28;657867;-74
2023/01/07 04:05:09;;;;;;;61.47;29.60;;;5.80;99.90;;;;;;4416300;28;658773;-74
2023/01/07 04:07:56;;;;;;;60.93;30.90;;;5.80;99.90;;;;;;4394510;28;657944;-74
2023/01/07 04:10:44;;;;;;;96.67;28.97;;;5.60;99.90;;;;;;4410450;28;658175;-74
2023/01/07 04:13:31;;;;;;;60.40;28.60;;;5.50;99.90;;;;;;4403522;28;659786;-74
2023/01/07 04:16:19;;;;;;;56.37;28.13;;;5.40;99.90;;;;;;4428704;28;658637;-74
2023/01/07 04:19:07;;;;;;;54.00;27.80;;;5.40;99.90;;;;;;4396671;28;657983;-74
2023/01/07 04:21:54;;;;;;;53.80;26.60;;;5.30;99.90;;;;;;4413665;28;657876;-74
2023/01/07 04:24:41;;;;;;;49.00;26.53;;;5.30;99.90;;;;;;4395558;28;658221;-74
2023/01/07 04:27:30;;;;;;;49.80;24.97;;;5.30;99.90;;;;;;4419562;28;657708;-74
2023/01/07 04:30:17;;;;;;;46.70;26.10;;;5.20;99.90;;;;;;4391200;28;658660;-74
2023/01/07 04:33:06;;;;;;;50.60;26.13;;;5.20;99.90;;;;;;4410848;28;657194;-74
2023/01/07 04:35:53;;;;;;;49.70;26.40;;;5.20;99.90;;;;;;4385624;28;658105;-74
2023/01/07 04:38:40;;;;;;;50.37;24.97;;;5.20;99.90;;;;;;4395620;28;657543;-74
2023/01/07 04:41:27;;;;;;;48.43;24.73;;;5.20;99.90;;;;;;4426232;28;658839;-74
2023/01/07 04:44:16;;;;;;;48.40;24.97;;;5.20;99.90;;;;;;4406444;28;657414;-74
2023/01/07 04:47:03;;;;;;;50.13;25.83;;;5.10;99.90;;;;;;4406364;28;658898;-74
2023/01/07 04:49:52;;;;;;;46.17;23.53;;;5.10;99.90;;;;;;4396146;28;657981;-74
2023/01/07 04:52:39;;;;;;;49.47;23.43;;;5.10;99.90;;;;;;4413596;28;657230;-74
2023/01/07 04:55:26;;;;;;;42.40;24.07;;;5.00;99.90;;;;;;4380086;28;658929;-74
2023/01/07 04:58:14;;;;;;;54.90;21.60;;;5.00;99.90;;;;;;4414488;28;657382;-74
2023/01/07 05:01:02;;;;;;;47.07;20.93;;;4.90;99.90;;;;;;4401217;28;657527;-73
2023/01/07 05:03:50;;;;;;;50.23;23.20;;;4.80;99.90;;;;;;4404671;28;657802;-74
2023/01/07 05:06:39;;;;;;;201.77;25.67;;;4.70;99.90;;;;;;4426633;28;657952;-74
2023/01/07 05:09:26;;;;;;;143.43;22.63;;;4.70;99.90;;;;;;4391890;28;658533;-74
2023/01/07 05:12:13;;;;;;;44.22;21.90;;;4.60;99.90;;;;;;4410721;28;659673;-74
2023/01/07 05:15:01;;;;;;;70.33;22.80;;;4.50;99.90;;;;;;4388759;28;657618;-74
2023/01/07 05:17:48;;;;;;;201.50;24.97;;;4.50;99.90;;;;;;4413758;28;657521;-74
2023/01/07 05:20:35;;;;;;;266.97;24.20;;;4.30;99.90;;;;;;4396515;28;658896;-74
2023/01/07 05:23:24;;;;;;;673.87;30.77;;;4.30;99.90;;;;;;4414779;28;659447;-74
2023/01/07 05:26:11;;;;;;;488.50;25.50;;;4.30;99.90;;;;;;4398650;28;658398;-74
2023/01/07 05:28:58;;;;;;;144.60;26.10;;;4.20;99.90;;;;;;4405214;28;660064;-74
2023/01/07 05:31:45;;;;;;;440.53;29.80;;;4.30;99.90;;;;;;4389629;28;659664;-73
2023/01/07 05:34:33;;;;;;;272.77;30.07;;;4.30;99.90;;;;;;4427346;28;659958;-74
2023/01/07 05:37:20;;;;;;;708.55;38.15;;;4.40;99.90;;;;;;4408092;28;658762;-73
2023/01/07 05:40:11;;;;;;;817.43;45.23;;;4.50;99.90;;;;;;4424232;28;659591;-73
2023/01/07 05:42:58;;;;;;;1014.53;49.07;;;4.60;99.90;;;;;;4409653;28;659369;-73
2023/01/07 05:45:45;;;;;;;692.87;39.20;;;4.70;99.90;;;;;;4409812;28;660233;-73
2023/01/07 05:48:33;;;;;;;421.67;32.73;;;4.60;99.90;;;;;;4402593;28;659363;-73
2023/01/07 05:51:20;;;;;;;589.23;35.33;;;4.60;99.90;;;;;;4402415;28;659163;-73
2023/01/07 05:54:07;;;;;;;597.83;36.20;;;4.50;99.90;;;;;;4416041;28;659222;-73
2023/01/07 05:56:57;;;;;;;470.30;33.00;;;4.50;99.90;;;;;;4406184;28;658326;-73
2023/01/07 05:59:44;;;;;;;376.63;38.13;;;4.50;99.90;;;;;;4412885;28;658595;-73
2023/01/07 06:02:31;;;;;;;489.83;36.37;;;4.40;99.90;;;;;;4389094;28;658574;-73
2023/01/07 06:05:18;;;;;;;631.23;54.83;;;4.40;99.90;;;;;;4424009;28;659729;-73
2023/01/07 06:08:06;;;;;;;465.10;60.23;;;4.30;99.90;;;;;;4385417;28;658492;-73
2023/01/07 06:10:53;;;;;;;372.77;46.50;;;4.30;99.90;;;;;;4425158;28;658955;-73
2023/01/07 06:13:42;;;;;;;440.07;35.43;;;4.30;99.90;;;;;;4384752;28;659752;-73
2023/01/07 06:16:29;;;;;;;759.73;54.53;;;4.30;99.90;;;;;;4409172;28;658187;-73
2023/01/07 06:19:16;;;;;;;792.70;67.60;;;4.20;99.90;;;;;;4407426;28;659067;-73
2023/01/07 06:22:03;;;;;;;559.10;58.00;;;4.10;99.90;;;;;;4403432;28;659717;-73
2023/01/07 06:24:51;;;;;;;219.70;34.07;;;4.10;99.90;;;;;;4394385;28;658627;-73
2023/01/07 06:27:39;;;;;;;310.73;27.63;;;4.10;99.90;;;;;;4410547;28;660132;-73
2023/01/07 06:30:28;;;;;;;590.30;45.03;;;4.00;99.90;;;;;;4401696;28;659326;-73
2023/01/07 06:33:15;;;;;;;164.55;25.10;;;3.90;99.90;;;;;;4391561;28;658492;-73
2023/01/07 06:36:03;;;;;;;532.87;32.00;;;3.90;99.90;;;;;;4406626;28;660273;-73
2023/01/07 06:38:50;;;;;;;150.90;24.03;;;3.90;99.90;;;;;;4395235;28;658627;-73
2023/01/07 06:41:38;;;;;;;202.63;24.67;;;3.80;99.90;;;;;;4409132;28;659213;-73
2023/01/07 06:44:25;;;;;;;151.50;23.20;;;3.80;99.90;;;;;;4392531;28;658866;-73
2023/01/07 06:47:14;;;;;;;173.00;25.67;;;3.80;99.90;;;;;;4419166;28;659977;-73
2023/01/07 06:50:01;;;;;;;531.03;27.37;;;3.80;99.90;;;;;;4395325;28;659114;-73
2023/01/07 06:52:48;;;;;;;206.98;22.45;;;3.70;99.90;;;;;;4424193;28;659679;-73
2023/01/07 06:55:36;;;;;;;669.30;30.20;;;3.70;99.90;;;;;;4389684;28;658692;-73
2023/01/07 06:58:23;;;;;;;503.70;33.60;;;3.60;99.90;;;;;;4410439;28;658242;-74
2023/01/07 07:01:11;;;;;;;78.80;21.70;;;3.60;99.90;;;;;;4402099;28;658772;-74
2023/01/07 07:03:59;;;;;;;43.63;20.73;;;3.60;99.90;;;;;;4412780;28;657601;-73
2023/01/07 07:06:46;;;;;;;64.60;22.03;;;3.60;99.90;;;;;;4395775;28;657413;-73
2023/01/07 07:09:34;;;;;;;107.47;29.37;;;3.60;99.90;;;;;;4404125;28;657892;-74
2023/01/07 07:12:21;;;;;;;202.13;54.70;;;3.60;99.90;;;;;;4407938;28;658939;-73
2023/01/07 07:15:09;;;;;;;413.88;87.53;;;3.60;99.90;;;;;;4416753;28;660249;-74
2023/01/07 07:17:56;;;;;;;184.43;72.47;;;3.60;99.90;;;;;;4388492;28;658858;-74
2023/01/07 07:20:45;;;;;;;79.67;36.17;;;3.60;99.90;;;;;;4420878;28;659286;-74
2023/01/07 07:23:32;;;;;;;490.50;24.53;;;3.60;99.90;;;;;;4380227;28;658235;-74
2023/01/07 07:26:20;;;;;;;701.90;31.40;;;3.60;99.90;;;;;;4402697;28;658860;-74
2023/01/07 07:29:08;;;;;;;472.47;30.80;;;3.40;99.90;;;;;;4423051;28;659418;-74
2023/01/07 07:31:55;;;;;;;585.27;35.53;;;3.40;99.90;;;;;;4400098;28;658467;-74
2023/01/07 07:34:43;;;;;;;255.43;28.90;;;3.40;99.90;;;;;;4407408;28;660111;-74
2023/01/07 07:37:32;;;;;;;93.50;34.10;;;3.40;99.90;;;;;;4402830;28;658834;-74
2023/01/07 07:40:19;;;;;;;139.73;53.17;;;3.40;99.90;;;;;;4432583;28;657690;-74
2023/01/07 07:43:06;;;;;;;287.77;36.53;;;3.60;99.90;;;;;;4397815;28;658619;-74
2023/01/07 07:45:53;;;;;;;218.47;38.70;;;3.70;99.90;;;;;;4400303;28;660223;-74
2023/01/07 07:48:40;;;;;;;586.30;45.23;;;3.70;99.90;;;;;;4390269;28;658886;-73
2023/01/07 07:51:28;;;;;;;648.93;52.93;;;3.80;99.90;;;;;;4420956;28;660135;-73
2023/01/07 07:54:17;;;;;;;445.00;60.80;;;3.80;99.90;;;;;;4380371;28;658820;-72
2023/01/07 07:57:04;;;;;;;614.80;65.13;;;3.80;99.90;;;;;;4416502;28;659216;-73
2023/01/07 07:59:51;;;;;;;747.28;72.80;;;3.90;99.90;;;;;;4382637;28;658956;-75
2023/01/07 08:02:38;;;;;;;1024.63;169.90;;;4.10;99.90;;;;;;4401446;28;659426;-74
2023/01/07 08:05:26;;;;;;;802.50;83.87;;;4.20;99.90;;;;;;4374320;28;661295;-72
2023/01/07 08:08:13;;;;;;;988.50;86.83;;;4.30;99.90;;;;;;4427552;28;658966;-72
2023/01/07 08:11:02;;;;;;;986.30;87.53;;;4.30;99.90;;;;;;4406284;28;658875;-72
2023/01/07 08:13:50;;;;;;;1035.80;78.73;;;4.40;99.90;;;;;;4423856;28;658642;-73
2023/01/07 08:16:37;;;;;;;859.57;77.33;;;4.40;99.90;;;;;;4394107;28;660781;-73
2023/01/07 08:19:25;;;;;;;1014.57;80.57;;;4.60;99.90;;;;;;4409969;28;658313;-73
2023/01/07 08:22:12;;;;;;;950.80;80.70;;;4.90;99.90;;;;;;4413240;28;659771;-73
2023/01/07 08:25:00;;;;;;;1038.20;79.03;;;5.20;99.90;;;;;;4415221;28;658471;-73
2023/01/07 08:27:49;;;;;;;1037.97;73.73;;;5.40;99.90;;;;;;4412394;28;660560;-73
2023/01/07 08:30:36;;;;;;;1285.80;78.83;;;5.50;99.90;;;;;;4392735;28;659639;-72
2023/01/07 08:33:23;;;;;;;1127.47;77.73;;;5.70;99.90;;;;;;4406022;28;661205;-73
2023/01/07 08:36:10;;;;;;;901.47;74.10;;;5.80;99.90;;;;;;4393844;28;659557;-73
2023/01/07 08:38:58;;;;;;;1046.13;75.70;;;5.90;99.90;;;;;;4409763;28;660158;-74
2023/01/07 08:41:45;;;;;;;783.00;58.97;;;6.10;99.90;;;;;;4399216;28;659499;-73
2023/01/07 08:44:34;;;;;;;532.33;52.13;;;6.20;99.90;;;;;;4392382;28;659852;-73
2023/01/07 08:47:21;;;;;;;796.20;57.90;;;6.20;99.90;;;;;;4401371;28;658929;-72
2023/01/07 08:50:09;;;;;;;178.20;46.57;;;6.40;99.90;;;;;;4400196;28;659091;-72
2023/01/07 08:52:56;;;;;;;101.83;38.70;;;6.50;99.90;;;;;;4385165;28;658617;-72
2023/01/07 08:55:43;;;;;;;99.70;38.73;;;6.60;99.90;;;;;;4398443;28;659347;-71
2023/01/07 08:58:31;;;;;;;81.57;36.07;;;6.60;99.90;;;;;;4382290;28;657612;-72
2023/01/07 09:01:19;;;;;;;86.43;36.07;;;6.50;99.90;;;;;;4418814;28;658068;-72
2023/01/07 09:04:06;;;;;;;100.00;38.93;;;6.60;99.90;;;;;;4391063;28;657635;-73
2023/01/07 09:06:54;;;;;;;81.13;36.67;;;6.50;99.90;;;;;;4400743;28;659165;-73
2023/01/07 09:09:41;;;;;;;80.40;35.03;;;6.60;99.90;;;;;;4392790;28;657977;-73
2023/01/07 09:12:29;;;;;;;79.33;34.60;;;6.80;99.90;;;;;;4415506;28;657984;-73
2023/01/07 09:15:16;;;;;;;77.77;34.80;;;6.90;99.90;;;;;;4399468;28;657848;-73
2023/01/07 09:18:05;;;;;;;73.73;34.47;;;7.10;99.90;;;;;;4414704;28;658206;-72
2023/01/07 09:20:52;;;;;;;90.27;38.73;;;7.10;99.90;;;;;;4390595;28;658211;-73
2023/01/07 09:23:40;;;;;;;88.70;37.90;;;7.20;99.90;;;;;;4404377;28;657550;-73
2023/01/07 09:26:27;;;;;;;161.30;63.97;;;7.30;99.90;;;;;;4420969;28;658733;-74
2023/01/07 09:29:15;;;;;;;152.07;63.33;;;7.50;99.90;;;;;;4408249;28;658423;-73
2023/01/07 09:32:02;;;;;;;140.20;60.90;;;7.60;99.90;;;;;;4411470;28;658638;-73
2023/01/07 09:34:52;;;;;;;103.80;50.07;;;7.80;99.90;;;;;;4394671;28;658433;-73
2023/01/07 09:37:39;;;;;;;105.33;47.43;;;8.50;99.90;;;;;;4400892;28;658908;-73
2023/01/07 09:40:27;;;;;;;73.83;40.23;;;9.00;99.90;;;;;;4400559;28;658700;-72
2023/01/07 09:43:17;;;;;;;58.97;33.07;;;9.70;99.90;;;;;;4416579;28;658574;-72
2023/01/07 09:46:07;;;;;;;35.20;21.23;;;10.40;99.90;;;;;;4393365;28;657755;-72
2023/01/07 09:48:56;;;;;;;32.00;17.73;;;10.30;99.90;;;;;;4378592;28;659320;-72
2023/01/07 09:51:45;;;;;;;27.17;16.07;;;10.60;99.90;;;;;;4399463;28;658832;-72
2023/01/07 09:54:34;;;;;;;30.50;16.67;;;10.20;99.90;;;;;;4396720;28;659725;-72
2023/01/07 09:57:21;;;;;;;30.00;16.33;;;9.70;99.90;;;;;;4392446;28;658669;-72
2023/01/07 10:00:14;;;;;;;25.70;16.40;;;9.70;99.90;;;;;;4415269;28;657362;-72
2023/01/07 10:03:16;;;;;;;24.60;16.00;;;10.40;99.90;;;;;;4379150;28;658360;-73
2023/01/07 10:06:07;;;;;;;20.90;13.23;;;11.10;99.90;;;;;;4398072;28;658602;-72
2023/01/07 10:09:04;;;;;;;22.07;13.37;;;11.10;99.90;;;;;;4398434;28;658734;-73
2023/01/07 10:11:56;;;;;;;18.73;11.50;;;11.40;99.90;;;;;;4400620;28;658999;-72
2023/01/07 10:15:02;;;;;;;19.48;12.05;;;11.10;99.90;;;;;;4375756;28;659131;-72
2023/01/07 10:18:07;;;;;;;21.27;13.30;;;10.70;99.90;;;;;;4391896;28;659213;-72
2023/01/07 10:20:57;;;;;;;21.43;13.90;;;9.80;99.90;;;;;;4395235;28;658903;-70
2023/01/07 10:23:45;;;;;;;22.63;14.60;;;9.70;99.90;;;;;;4386562;28;657933;-72
2023/01/07 10:26:35;;;;;;;18.70;12.27;;;11.10;99.90;;;;;;4380415;28;658920;-72
2023/01/07 10:29:26;;;;;;;15.83;10.60;;;12.30;99.90;;;;;;4371471;28;659671;-72
2023/01/07 10:32:14;;;;;;;15.73;10.73;;;12.30;99.90;;;;;;4394582;28;660136;-72
2023/01/07 10:35:02;;;;;;;18.37;10.87;;;12.10;99.90;;;;;;4387939;28;658824;-71
2023/01/07 10:37:49;;;;;;;17.40;11.50;;;11.80;99.90;;;;;;4406811;28;658361;-71
2023/01/07 10:40:40;;;;;;;18.57;11.73;;;11.90;99.90;;;;;;4380907;28;660022;-72
2023/01/07 10:43:39;;;;;;;19.17;11.60;;;12.20;99.90;;;;;;4384639;28;659561;-72
2023/01/07 10:46:39;;;;;;;17.83;10.37;;;12.10;99.90;;;;;;4355171;28;659090;-72
2023/01/07 10:49:37;;;;;;;18.23;10.83;;;12.70;99.90;;;;;;4376239;28;659356;-72
2023/01/07 10:52:30;;;;;;;14.83;8.87;;;13.60;99.90;;;;;;4397305;28;658255;-72
2023/01/07 10:55:28;;;;;;;15.77;8.50;;;14.60;99.90;;;;;;4374633;28;657821;-72
2023/01/07 10:58:15;;;;;;;13.60;8.93;;;14.90;99.90;;;;;;4385959;28;657798;-72
2023/01/07 11:01:04;;;;;;;13.47;8.50;;;14.40;99.90;;;;;;4404763;28;657839;-72
2023/01/07 11:03:52;;;;;;;12.20;7.30;;;15.00;99.90;;;;;;4406579;28;657491;-71
2023/01/07 11:06:40;;;;;;;14.13;8.20;;;15.60;99.40;;;;;;4409236;28;657442;-72
2023/01/07 11:09:29;;;;;;;13.50;8.20;;;15.80;99.00;;;;;;4398219;28;658609;-72
2023/01/07 11:12:22;;;;;;;12.23;7.53;;;14.70;99.90;;;;;;4386818;28;658067;-72
2023/01/07 11:15:15;;;;;;;14.20;8.53;;;14.20;99.90;;;;;;4400178;28;657521;-72
2023/01/07 11:18:05;;;;;;;16.10;8.83;;;14.70;99.90;;;;;;4395990;28;657635;-72
2023/01/07 11:20:52;;;;;;;14.33;8.20;;;14.80;99.90;;;;;;4375456;28;658970;-72
2023/01/07 11:23:40;;;;;;;14.60;8.97;;;14.50;99.10;;;;;;4400242;28;657710;-72
2023/01/07 11:26:29;;;;;;;17.07;9.10;;;14.20;99.90;;;;;;4405906;28;659261;-74
2023/01/07 11:29:21;;;;;;;15.30;7.50;;;13.90;99.90;;;;;;4403796;28;657427;-75
2023/01/07 11:32:17;;;;;;;12.07;8.13;;;13.10;99.90;;;;;;4375495;28;657535;-74
2023/01/07 11:35:07;;;;;;;12.03;7.87;;;13.20;99.90;;;;;;4398650;28;657990;-72
2023/01/07 11:37:55;;;;;;;11.53;7.20;;;13.20;99.90;;;;;;4400355;28;657554;-72
2023/01/07 11:40:43;;;;;;;14.50;8.17;;;13.40;99.90;;;;;;4401740;28;658419;-71
2023/01/07 11:43:32;;;;;;;12.87;7.97;;;13.30;99.90;;;;;;4392384;28;657735;-71
2023/01/07 11:46:19;;;;;;;13.07;8.07;;;13.20;99.90;;;;;;4418382;28;657996;-71
2023/01/07 11:49:08;;;;;;;12.97;7.97;;;12.80;99.90;;;;;;4396624;28;658000;-71
2023/01/07 11:51:57;;;;;;;12.53;7.20;;;13.70;99.90;;;;;;4399739;28;657673;-72
2023/01/07 11:54:44;;;;;;;9.60;6.13;;;14.20;99.90;;;;;;4423747;28;657535;-70
2023/01/07 11:57:31;;;;;;;10.47;6.53;;;14.10;99.90;;;;;;4391856;28;657303;-71
2023/01/07 12:00:19;;;;;;;10.23;6.40;;;13.70;99.90;;;;;;4414463;28;658145;-71
2023/01/07 12:03:10;;;;;;;10.10;6.17;;;13.20;99.90;;;;;;4402750;28;657877;-72
2023/01/07 12:05:58;;;;;;;11.07;6.17;;;12.70;99.90;;;;;;4379168;28;658526;-71
2023/01/07 12:08:53;;;;;;;9.20;5.57;;;12.90;99.90;;;;;;4380983;28;657617;-73
2023/01/07 12:11:41;;;;;;;10.00;6.40;;;13.80;99.90;;;;;;4368107;28;657336;-71
2023/01/07 12:14:30;;;;;;;12.90;6.43;;;14.00;99.90;;;;;;4405905;28;658811;-72
2023/01/07 12:17:18;;;;;;;10.30;7.10;;;14.20;99.90;;;;;;4392838;28;659279;-71
2023/01/07 12:20:27;;;;;;;9.87;5.73;;;14.00;99.90;;;;;;4384438;28;657623;-72
2023/01/07 12:23:22;;;;;;;9.20;5.70;;;13.50;99.90;;;;;;4381279;28;657146;-71
2023/01/07 12:26:12;;;;;;;5.77;3.90;;;14.10;99.90;;;;;;4393469;28;657434;-73
2023/01/07 12:29:07;;;;;;;5.00;3.57;;;14.90;98.60;;;;;;4382435;28;657059;-72
2023/01/07 12:32:03;;;;;;;7.03;3.60;;;15.70;91.30;;;;;;4393805;28;656615;-72
2023/01/07 12:34:53;;;;;;;6.37;3.97;;;17.00;90.40;;;;;;4382341;28;657551;-72
2023/01/07 12:37:42;;;;;;;5.00;3.30;;;16.70;84.10;;;;;;4390936;28;656318;-71
2023/01/07 12:40:32;;;;;;;4.70;3.10;;;17.30;78.10;;;;;;4411640;28;657519;-71
2023/01/07 12:43:23;;;;;;;5.00;3.07;;;17.00;72.90;;;;;;4381824;28;656637;-72
2023/01/07 12:46:12;;;;;;;6.20;3.53;;;15.50;74.80;;;;;;4358213;28;656422;-72
2023/01/07 12:49:03;;;;;;;6.50;3.53;;;15.00;75.70;;;;;;4414563;28;656862;-70
2023/01/07 12:51:54;;;;;;;6.57;4.20;;;14.10;80.00;;;;;;4384072;28;658012;-70
2023/01/07 12:54:44;;;;;;;6.80;4.10;;;13.90;82.70;;;;;;4409622;28;656497;-70
2023/01/07 12:57:34;;;;;;;8.43;4.10;;;13.30;87.40;;;;;;4408331;28;656990;-70
2023/01/07 13:00:24;;;;;;;6.53;4.20;;;11.90;95.40;;;;;;4396610;28;656849;-71
2023/01/07 13:03:32;;;;;;;5.37;3.73;;;11.70;99.90;;;;;;4385796;28;656656;-71
2023/01/07 13:06:21;;;;;;;6.63;3.80;;;11.40;99.90;;;;;;4378027;28;656280;-72
2023/01/07 13:09:14;;;;;;;8.17;4.30;;;11.40;99.90;;;;;;4379696;28;657704;-70
2023/01/07 13:15:11;;;;;;;11.23;6.37;;;11.30;99.90;;;;;;4380302;28;658097;-72
2023/01/07 13:18:07;;;;;;;37.07;18.33;;;11.30;99.90;;;;;;4385191;28;657779;-70
2023/01/07 13:21:05;;;;;;;90.17;41.93;;;11.30;99.90;;;;;;4375070;28;658862;-71
2023/01/07 13:24:01;;;;;;;57.90;26.80;;;12.50;99.90;;;;;;4378678;28;658921;-71
2023/01/07 13:26:51;;;;;;;30.73;15.83;;;14.00;99.90;;;;;;4376575;28;659419;-72
2023/01/07 13:29:45;;;;;;;19.00;10.77;;;15.20;99.90;;;;;;4374660;28;659207;-72
2023/01/07 13:33:08;;;;;;;24.17;13.17;;;16.30;96.00;;;;;;4379817;28;658789;-72
2023/01/07 13:36:05;;;;;;;14.60;7.43;;;17.60;87.70;;;;;;4345068;28;658495;-72
2023/01/07 13:39:14;;;;;;;8.83;5.00;;;18.20;75.30;;;;;;4359680;28;660595;-71
2023/01/07 13:42:22;;;;;;;17.53;10.63;;;18.80;68.90;;;;;;4394791;28;656337;-71
2023/01/07 13:45:11;;;;;;;14.00;5.43;;;19.50;68.00;;;;;;4394768;28;658781;-71
2023/01/07 13:47:59;;;;;;;7.80;4.70;;;20.40;61.60;;;;;;4408037;28;658025;-71
2023/01/07 13:50:57;;;;;;;7.90;4.43;;;20.70;58.20;;;;;;4399741;28;656491;-71
2023/01/07 13:53:46;;;;;;;7.17;4.20;;;20.50;56.60;;;;;;4395805;28;656828;-72
2023/01/07 13:56:35;;;;;;;9.17;5.10;;;19.80;56.00;;;;;;4400853;28;657279;-72
2023/01/07 13:59:30;;;;;;;5.00;3.00;;;19.30;57.40;;;;;;4389858;28;657691;-71
2023/01/07 14:02:19;;;;;;;4.37;2.70;;;19.20;54.80;;;;;;4368654;28;657514;-70
2023/01/07 14:05:06;;;;;;;6.27;2.87;;;18.40;56.20;;;;;;4393087;28;656411;-71
2023/01/07 14:07:56;;;;;;;14.37;7.73;;;17.50;57.80;;;;;;4419878;28;656568;-71
2023/01/07 14:10:44;;;;;;;10.33;6.10;;;17.40;59.80;;;;;;4393912;28;657951;-71
2023/01/07 14:13:32;;;;;;;11.88;6.72;;;17.70;60.10;;;;;;4389908;28;657669;-70
2023/01/07 14:16:20;;;;;;;10.07;6.13;;;17.20;61.00;;;;;;4423368;28;658090;-70
2023/01/07 14:19:11;;;;;;;8.17;3.97;;;16.60;62.90;;;;;;4391911;28;658071;-70